createdAt,value
2023-09-08T00:01:15.630Z,4.13
2023-09-08T00:03:42.708Z,5.00
2023-09-08T00:06:09.702Z,4.68
2023-09-08T00:08:36.923Z,4.82
2023-09-08T00:11:04.190Z,4.80
2023-09-08T00:13:31.347Z,5.60
2023-09-08T00:15:58.403Z,5.65
2023-09-08T00:18:25.344Z,6.15
2023-09-08T00:20:52.339Z,6.32
2023-09-08T00:23:19.260Z,6.75
2023-09-08T00:25:46.293Z,6.22
2023-09-08T00:28:13.468Z,6.93
2023-09-08T00:30:40.618Z,6.20
2023-09-08T00:33:10.175Z,6.82
2023-09-08T00:35:37.397Z,6.22
2023-09-08T00:38:04.679Z,6.45
2023-09-08T00:40:37.995Z,6.40
2023-09-08T00:43:08.342Z,6.07
2023-09-08T00:45:41.518Z,5.45
2023-09-08T00:48:09.250Z,5.15
2023-09-08T00:50:37.794Z,5.13
2023-09-08T00:53:07.083Z,5.05
2023-09-08T00:55:34.221Z,5.25
2023-09-08T00:58:02.113Z,4.65
2023-09-08T01:00:29.394Z,4.75
2023-09-08T01:02:56.498Z,4.32
2023-09-08T01:05:23.588Z,4.60
2023-09-08T01:07:53.105Z,4.03
2023-09-08T01:10:20.419Z,4.32
2023-09-08T01:12:47.632Z,3.85
2023-09-08T01:15:14.733Z,3.85
2023-09-08T01:17:41.863Z,3.53
2023-09-08T01:20:22.763Z,3.28
2023-09-08T01:23:35.778Z,3.70
2023-09-08T01:26:22.799Z,3.42
2023-09-08T01:28:51.399Z,4.10
2023-09-08T01:31:19.289Z,3.17
2023-09-08T01:33:46.925Z,3.90
2023-09-08T01:36:15.308Z,4.15
2023-09-08T01:38:42.328Z,3.58
2023-09-08T01:41:09.288Z,3.63
2023-09-08T01:43:36.358Z,3.42
2023-09-08T01:46:03.490Z,3.72
2023-09-08T01:48:30.476Z,3.63
2023-09-08T01:50:58.493Z,3.70
2023-09-08T01:53:25.443Z,3.78
2023-09-08T01:55:52.461Z,3.83
2023-09-08T01:59:18.114Z,3.90
2023-09-08T02:01:45.217Z,3.50
2023-09-08T02:04:12.285Z,3.60
2023-09-08T02:06:39.258Z,4.75
2023-09-08T02:09:06.200Z,3.10
2023-09-08T02:11:33.165Z,3.90
2023-09-08T02:14:00.240Z,3.38
2023-09-08T02:16:27.294Z,4.15
2023-09-08T02:18:54.397Z,3.50
2023-09-08T02:21:22.702Z,3.30
2023-09-08T02:23:49.693Z,3.70
2023-09-08T02:26:17.039Z,3.33
2023-09-08T02:28:44.445Z,3.90
2023-09-08T02:31:11.813Z,4.20
2023-09-08T02:33:39.099Z,4.05
2023-09-08T02:36:07.126Z,3.67
2023-09-08T02:38:35.854Z,3.90
2023-09-08T02:41:03.099Z,3.97
2023-09-08T02:43:30.725Z,3.78
2023-09-08T02:45:58.621Z,3.88
2023-09-08T02:48:26.235Z,4.57
2023-09-08T02:50:55.227Z,3.85
2023-09-08T02:53:22.445Z,4.22
2023-09-08T02:55:50.510Z,4.80
2023-09-08T02:58:17.506Z,4.15
2023-09-08T03:00:44.556Z,4.53
2023-09-08T03:03:11.519Z,4.60
2023-09-08T03:05:38.736Z,3.92
2023-09-08T03:08:06.537Z,4.07
2023-09-08T03:10:35.662Z,4.88
2023-09-08T03:13:04.722Z,4.07
2023-09-08T03:15:31.814Z,4.90
2023-09-08T03:18:00.381Z,4.25
2023-09-08T03:20:27.727Z,4.25
2023-09-08T03:22:56.250Z,4.00
2023-09-08T03:25:23.240Z,4.95
2023-09-08T03:27:50.328Z,4.80
2023-09-08T03:30:17.389Z,3.90
2023-09-08T03:32:44.561Z,4.57
2023-09-08T03:35:11.622Z,4.55
2023-09-08T03:37:39.477Z,4.30
2023-09-08T03:40:08.168Z,3.80
2023-09-08T03:42:36.075Z,4.97
2023-09-08T03:45:03.657Z,3.85
2023-09-08T03:47:30.766Z,4.93
2023-09-08T03:49:57.936Z,4.30
2023-09-08T03:52:25.322Z,5.25
2023-09-08T03:54:52.232Z,7.30
2023-09-08T03:57:19.388Z,4.85
2023-09-08T03:59:46.414Z,5.18
2023-09-08T04:02:13.654Z,5.20
2023-09-08T04:04:40.712Z,4.40
2023-09-08T04:07:09.183Z,7.60
2023-09-08T04:09:36.197Z,5.57
2023-09-08T04:12:03.401Z,5.63
2023-09-08T04:14:31.715Z,5.13
2023-09-08T04:16:58.688Z,5.28
2023-09-08T04:19:25.829Z,5.10
2023-09-08T04:21:52.797Z,6.10
2023-09-08T04:24:21.323Z,7.18
2023-09-08T04:26:48.370Z,6.30
2023-09-08T04:29:15.369Z,6.03
2023-09-08T04:31:42.373Z,6.47
2023-09-08T04:34:09.471Z,5.07
2023-09-08T04:36:36.562Z,6.32
2023-09-08T04:39:03.754Z,5.82
2023-09-08T04:41:30.825Z,6.72
2023-09-08T04:43:59.422Z,7.57
2023-09-08T04:46:26.709Z,7.10
2023-09-08T04:48:53.953Z,7.28
2023-09-08T04:51:23.196Z,7.60
2023-09-08T04:53:50.621Z,5.63
2023-09-08T04:56:17.718Z,12.32
2023-09-08T04:58:45.092Z,9.60
2023-09-08T05:01:13.572Z,7.25
2023-09-08T05:03:41.041Z,6.30
2023-09-08T05:06:09.271Z,7.18
2023-09-08T05:08:36.572Z,7.20
2023-09-08T05:11:04.455Z,7.68
2023-09-08T05:13:32.532Z,7.40
2023-09-08T05:16:12.508Z,7.68
2023-09-08T05:18:44.556Z,6.88
2023-09-08T05:21:11.868Z,6.65
2023-09-08T05:23:39.025Z,6.45
2023-09-08T05:26:06.445Z,6.15
2023-09-08T05:28:37.169Z,7.47
2023-09-08T05:31:06.831Z,6.93
2023-09-08T05:33:35.345Z,6.15
2023-09-08T05:36:03.457Z,6.47
2023-09-08T05:38:30.656Z,5.65
2023-09-08T05:40:57.757Z,5.53
2023-09-08T05:43:26.895Z,5.90
2023-09-08T05:45:55.377Z,6.32
2023-09-08T05:48:22.428Z,6.05
2023-09-08T05:50:49.725Z,5.78
2023-09-08T05:53:16.960Z,5.35
2023-09-08T05:55:44.831Z,5.85
2023-09-08T05:58:12.153Z,6.40
2023-09-08T06:00:39.386Z,5.30
2023-09-08T06:03:07.293Z,6.15
2023-09-08T06:05:34.733Z,5.53
2023-09-08T06:08:07.059Z,4.65
2023-09-08T06:10:38.364Z,5.97
2023-09-08T06:13:06.133Z,6.25
2023-09-08T06:15:33.451Z,4.95
2023-09-08T06:18:00.837Z,4.78
2023-09-08T06:20:28.402Z,4.60
2023-09-08T06:22:56.122Z,4.97
2023-09-08T06:25:23.560Z,4.57
2023-09-08T06:27:50.676Z,4.45
2023-09-08T06:30:19.528Z,4.50
2023-09-08T06:32:46.900Z,5.60
2023-09-08T06:35:14.168Z,5.40
2023-09-08T06:37:41.251Z,3.50
2023-09-08T06:40:09.421Z,3.70
2023-09-08T06:42:36.458Z,3.72
2023-09-08T06:45:32.530Z,3.30
2023-09-08T06:48:01.358Z,4.13
2023-09-08T06:50:30.618Z,3.63
2023-09-08T06:52:57.949Z,2.95
2023-09-08T06:55:25.096Z,3.72
2023-09-08T06:57:52.344Z,3.25
2023-09-08T07:00:21.697Z,3.95
2023-09-08T07:02:50.811Z,4.57
2023-09-08T07:05:18.817Z,2.35
2023-09-08T07:07:50.716Z,3.65
2023-09-08T07:10:18.138Z,4.38
2023-09-08T07:12:45.482Z,3.58
2023-09-08T07:15:12.525Z,3.20
2023-09-08T07:17:39.574Z,4.32
2023-09-08T07:20:07.791Z,3.58
2023-09-08T07:22:35.037Z,2.63
2023-09-08T07:25:02.119Z,2.70
2023-09-08T07:27:29.297Z,2.85
2023-09-08T07:29:56.767Z,3.33
2023-09-08T07:32:26.255Z,4.00
2023-09-08T07:34:57.096Z,2.70
2023-09-08T07:37:26.596Z,2.30
2023-09-08T07:39:53.633Z,2.83
2023-09-08T07:42:21.040Z,3.78
2023-09-08T07:44:49.472Z,2.75
2023-09-08T07:47:16.504Z,3.22
2023-09-08T07:49:47.937Z,3.20
2023-09-08T07:52:15.114Z,2.78
2023-09-08T07:54:42.135Z,2.33
2023-09-08T07:57:09.301Z,3.20
2023-09-08T07:59:38.004Z,2.55
2023-09-08T08:02:05.290Z,2.72
2023-09-08T08:04:32.422Z,3.05
2023-09-08T08:06:59.623Z,3.50
2023-09-08T08:09:26.765Z,2.67
2023-09-08T08:11:53.889Z,2.40
2023-09-08T08:14:20.936Z,2.40
2023-09-08T08:16:48.119Z,2.67
2023-09-08T08:19:15.143Z,2.63
2023-09-08T08:21:43.615Z,2.03
2023-09-08T08:24:11.681Z,2.88
2023-09-08T08:26:38.722Z,3.00
2023-09-08T08:29:05.764Z,3.47
2023-09-08T08:31:34.616Z,3.15
2023-09-08T08:34:01.648Z,2.53
2023-09-08T08:36:28.661Z,2.53
2023-09-08T08:38:55.678Z,2.70
2023-09-08T08:41:22.633Z,2.20
2023-09-08T08:43:51.791Z,2.33
2023-09-08T08:46:19.828Z,2.47
2023-09-08T08:48:47.971Z,2.17
2023-09-08T08:51:19.245Z,4.20
2023-09-08T08:53:46.353Z,2.83
2023-09-08T08:56:16.742Z,3.60
2023-09-08T09:01:12.675Z,2.47
2023-09-08T09:03:41.577Z,2.85
2023-09-08T09:06:08.826Z,2.45
2023-09-08T09:08:38.565Z,2.30
2023-09-08T09:11:05.646Z,2.30
2023-09-08T09:13:32.616Z,2.47
2023-09-08T09:16:01.549Z,3.53
2023-09-08T09:18:31.492Z,2.22
2023-09-08T09:21:02.547Z,3.28
2023-09-08T09:23:34.193Z,3.58
2023-09-08T09:26:05.284Z,2.65
2023-09-08T09:28:32.925Z,2.20
2023-09-08T09:31:00.776Z,2.83
2023-09-08T09:33:29.435Z,1.85
2023-09-08T09:35:56.551Z,2.42
2023-09-08T09:38:23.666Z,2.60
2023-09-08T09:40:51.028Z,2.65
2023-09-08T09:43:21.797Z,2.88
2023-09-08T09:45:48.986Z,2.45
2023-09-08T09:48:16.917Z,2.97
2023-09-08T09:50:46.649Z,2.75
2023-09-08T09:53:16.051Z,2.45
2023-09-08T09:55:45.359Z,3.65
2023-09-08T09:58:13.680Z,3.25
2023-09-08T10:00:42.437Z,2.88
2023-09-08T10:03:10.629Z,3.08
2023-09-08T10:05:38.712Z,4.32
2023-09-08T10:08:06.590Z,3.47
2023-09-08T10:10:35.808Z,6.60
2023-09-08T10:13:07.679Z,2.40
2023-09-08T10:15:35.014Z,2.45
2023-09-08T10:18:05.875Z,2.10
2023-09-08T10:20:34.662Z,2.58
2023-09-08T10:23:23.948Z,3.50
2023-09-08T10:25:58.090Z,2.75
2023-09-08T10:28:26.175Z,2.78
2023-09-08T10:30:54.544Z,2.03
2023-09-08T10:33:22.269Z,3.20
2023-09-08T10:35:49.495Z,2.63
2023-09-08T10:38:34.278Z,3.38
2023-09-08T10:41:37.139Z,3.08
2023-09-08T10:44:08.960Z,3.03
2023-09-08T10:46:38.088Z,2.50
2023-09-08T10:49:08.433Z,3.40
2023-09-08T10:51:36.594Z,2.30
2023-09-08T10:54:04.656Z,2.88
2023-09-08T10:56:52.429Z,2.65
2023-09-08T10:59:19.470Z,2.63
2023-09-08T11:01:48.827Z,3.25
2023-09-08T11:04:20.480Z,2.50
2023-09-08T11:06:47.698Z,3.28
2023-09-08T11:09:15.469Z,2.58
2023-09-08T11:11:43.523Z,2.88
2023-09-08T11:14:10.499Z,3.08
2023-09-08T11:16:37.637Z,2.58
2023-09-08T11:19:06.290Z,2.90
2023-09-08T11:21:36.830Z,2.88
2023-09-08T11:24:06.068Z,4.05
2023-09-08T11:26:36.125Z,3.25
2023-09-08T11:29:04.255Z,3.90
2023-09-08T11:31:31.503Z,2.78
2023-09-08T11:34:00.804Z,2.65
2023-09-08T11:36:27.840Z,2.77
2023-09-08T11:38:55.059Z,2.70
2023-09-08T11:41:25.120Z,3.25
2023-09-08T11:46:20.952Z,2.42
2023-09-08T11:48:48.308Z,2.50
2023-09-08T11:51:15.382Z,2.80
2023-09-08T11:53:42.689Z,3.30
2023-09-08T11:56:09.905Z,3.28
2023-09-08T11:58:37.662Z,2.38
2023-09-08T12:01:05.927Z,2.30
2023-09-08T12:03:33.238Z,2.20
2023-09-08T12:06:01.458Z,1.98
2023-09-08T12:08:28.596Z,2.75
2023-09-08T12:10:55.770Z,2.78
2023-09-08T12:13:24.427Z,2.53
2023-09-08T12:15:51.608Z,3.38
2023-09-08T12:18:18.759Z,2.85
2023-09-08T12:20:46.282Z,2.33
2023-09-08T12:23:23.457Z,2.38
2023-09-08T12:25:53.149Z,2.75
2023-09-08T12:28:24.938Z,2.72
2023-09-08T12:30:52.483Z,2.78
2023-09-08T12:33:22.316Z,3.10
2023-09-08T12:38:21.851Z,3.03
2023-09-08T12:40:49.486Z,3.15
2023-09-08T12:43:26.133Z,2.97
2023-09-08T12:45:58.742Z,2.42
2023-09-08T12:48:26.161Z,2.97
2023-09-08T12:50:54.742Z,3.78
2023-09-08T12:53:22.996Z,2.45
2023-09-08T12:55:50.380Z,3.42
2023-09-08T12:58:18.432Z,2.53
2023-09-08T13:00:45.850Z,3.03
2023-09-08T13:03:13.136Z,2.92
2023-09-08T13:05:40.689Z,3.00
2023-09-08T13:08:08.251Z,3.35
2023-09-08T13:10:35.350Z,3.13
2023-09-08T13:13:02.493Z,3.75
2023-09-08T13:15:32.689Z,2.70
2023-09-08T13:17:59.852Z,2.65
2023-09-08T13:20:27.003Z,3.30
2023-09-08T13:22:54.157Z,2.97
2023-09-08T13:25:21.404Z,4.20
2023-09-08T13:27:49.350Z,3.42
2023-09-08T13:30:17.386Z,3.65
2023-09-08T13:32:45.942Z,3.10
2023-09-08T13:35:13.401Z,2.80
2023-09-08T13:37:40.522Z,3.00
2023-09-08T13:40:09.293Z,2.85
2023-09-08T13:42:37.079Z,2.33
2023-09-08T13:45:05.038Z,3.17
2023-09-08T13:47:32.999Z,4.10
2023-09-08T13:50:03.070Z,2.90
2023-09-08T13:52:33.353Z,2.28
2023-09-08T13:57:35.107Z,2.20
2023-09-08T14:00:04.812Z,3.13
2023-09-08T14:02:43.074Z,4.65
2023-09-08T14:05:11.530Z,2.58
2023-09-08T14:07:46.061Z,2.63
2023-09-08T14:10:27.298Z,2.60
2023-09-08T14:12:57.539Z,3.60
2023-09-08T14:15:24.699Z,3.10
2023-09-08T14:17:51.769Z,2.33
2023-09-08T14:20:18.698Z,3.13
2023-09-08T14:22:46.142Z,2.78
2023-09-08T14:25:14.448Z,2.85
2023-09-08T14:27:41.501Z,2.58
2023-09-08T14:30:08.808Z,4.13
2023-09-08T14:32:35.856Z,2.70
2023-09-08T14:35:03.032Z,2.95
2023-09-08T14:37:29.986Z,2.38
2023-09-08T14:39:56.947Z,2.00
2023-09-08T14:42:24.033Z,3.55
2023-09-08T14:44:52.823Z,2.17
2023-09-08T14:47:19.997Z,2.60
2023-09-08T14:49:47.648Z,2.35
2023-09-08T14:52:14.732Z,2.45
2023-09-08T14:54:42.358Z,2.20
2023-09-08T14:57:11.500Z,2.10
2023-09-08T14:59:38.479Z,2.28
2023-09-08T15:02:07.609Z,2.10
2023-09-08T15:04:35.808Z,2.40
2023-09-08T15:07:02.973Z,2.50
2023-09-08T15:09:29.943Z,1.70
2023-09-08T15:11:58.453Z,2.47
2023-09-08T15:14:27.788Z,3.08
2023-09-08T15:16:54.787Z,2.93
2023-09-08T15:19:21.793Z,2.53
2023-09-08T15:21:48.714Z,2.38
2023-09-08T15:24:19.535Z,1.98
2023-09-08T15:26:47.380Z,1.88
2023-09-08T15:29:14.964Z,2.15
2023-09-08T15:31:42.093Z,2.33
2023-09-08T15:34:09.085Z,2.40
2023-09-08T15:36:36.018Z,2.58
2023-09-08T15:39:05.165Z,3.00
2023-09-08T15:41:32.324Z,2.20
2023-09-08T15:43:59.276Z,3.03
2023-09-08T15:46:31.454Z,2.97
2023-09-08T15:48:58.448Z,2.20
2023-09-08T15:51:25.578Z,2.20
2023-09-08T15:53:54.708Z,2.30
2023-09-08T15:56:21.653Z,2.72
2023-09-08T15:58:52.968Z,2.30
2023-09-08T16:01:20.058Z,2.00
2023-09-08T16:03:47.748Z,3.95
2023-09-08T16:06:14.925Z,2.83
2023-09-08T16:08:41.883Z,3.10
2023-09-08T16:11:09.145Z,2.70
2023-09-08T16:13:36.348Z,2.53
2023-09-08T16:16:04.119Z,2.38
2023-09-08T16:18:34.497Z,2.50
2023-09-08T16:21:01.473Z,3.80
2023-09-08T16:23:30.858Z,3.17
2023-09-08T16:25:58.018Z,3.80
2023-09-08T16:28:25.253Z,2.63
2023-09-08T16:30:55.446Z,2.60
2023-09-08T16:33:22.523Z,2.67
2023-09-08T16:35:49.472Z,3.30
2023-09-08T16:38:16.454Z,3.20
2023-09-08T16:40:48.324Z,4.28
2023-09-08T16:43:21.172Z,3.22
2023-09-08T16:45:50.498Z,2.92
2023-09-08T16:48:17.682Z,3.13
2023-09-08T16:50:44.685Z,2.60
2023-09-08T16:53:12.736Z,2.70
2023-09-08T16:55:39.683Z,2.08
2023-09-08T16:58:06.705Z,1.95
2023-09-08T17:00:34.304Z,1.92
2023-09-08T17:03:01.619Z,2.08
2023-09-08T17:05:28.768Z,2.50
2023-09-08T17:07:57.899Z,2.30
2023-09-08T17:10:25.485Z,2.53
2023-09-08T17:12:52.669Z,3.13
2023-09-08T17:15:19.796Z,2.90
2023-09-08T17:17:46.933Z,2.47
2023-09-08T17:20:17.740Z,3.15
2023-09-08T17:22:48.862Z,2.40
2023-09-08T17:25:16.041Z,3.72
2023-09-08T17:27:44.708Z,2.83
2023-09-08T17:30:12.193Z,2.25
2023-09-08T17:32:39.179Z,2.47
2023-09-08T17:35:06.873Z,2.72
2023-09-08T17:37:34.369Z,2.40
2023-09-08T17:40:01.287Z,2.38
2023-09-08T17:42:28.268Z,2.20
2023-09-08T17:44:55.275Z,3.17
2023-09-08T17:47:22.267Z,2.35
2023-09-08T17:49:49.267Z,2.45
2023-09-08T17:52:16.339Z,2.58
2023-09-08T17:54:43.474Z,2.13
2023-09-08T17:57:10.514Z,2.80
2023-09-08T17:59:37.461Z,3.00
2023-09-08T18:02:06.169Z,2.35
2023-09-08T18:04:35.767Z,2.78
2023-09-08T18:07:04.705Z,2.55
2023-09-08T18:09:31.852Z,3.67
2023-09-08T18:11:58.822Z,4.25
2023-09-08T18:14:25.905Z,4.07
2023-09-08T18:16:53.637Z,4.45
2023-09-08T18:19:20.743Z,5.55
2023-09-08T18:21:47.738Z,4.35
2023-09-08T18:24:14.732Z,2.50
2023-09-08T18:26:41.787Z,3.67
2023-09-08T18:29:08.864Z,6.32
2023-09-08T18:31:36.118Z,5.43
2023-09-08T18:34:03.166Z,4.40
2023-09-08T18:36:30.632Z,2.95
2023-09-08T18:38:57.631Z,2.90
2023-09-08T18:41:24.661Z,2.85
2023-09-08T18:43:51.724Z,3.10
2023-09-08T18:46:18.939Z,3.22
2023-09-08T18:48:46.664Z,2.78
2023-09-08T18:51:14.077Z,3.83
2023-09-08T18:53:41.308Z,3.03
2023-09-08T18:56:08.353Z,2.88
2023-09-08T18:58:37.540Z,3.08
2023-09-08T19:01:05.799Z,3.63
2023-09-08T19:03:33.956Z,3.78
2023-09-08T19:06:01.096Z,4.03
2023-09-08T19:08:29.052Z,6.80
2023-09-08T19:10:57.715Z,4.93
2023-09-08T19:13:24.751Z,3.67
2023-09-08T19:15:52.007Z,4.13
2023-09-08T19:18:19.846Z,4.70
2023-09-08T19:20:47.243Z,3.83
2023-09-08T19:23:14.280Z,3.35
2023-09-08T19:25:43.385Z,3.67
2023-09-08T19:28:10.628Z,3.97
2023-09-08T19:30:37.695Z,3.65
2023-09-08T19:33:05.166Z,3.55
2023-09-08T19:35:36.133Z,4.80
2023-09-08T19:38:03.604Z,3.83
2023-09-08T19:40:30.709Z,3.63
2023-09-08T19:42:57.702Z,3.75
2023-09-08T19:45:25.387Z,3.58
2023-09-08T19:47:52.571Z,3.28
2023-09-08T19:50:19.800Z,3.92
2023-09-08T19:52:46.811Z,3.45
2023-09-08T19:55:13.908Z,3.22
2023-09-08T19:57:41.067Z,3.95
2023-09-08T20:00:09.335Z,3.88
2023-09-08T20:02:43.498Z,3.40
2023-09-08T20:05:11.404Z,3.30
2023-09-08T20:07:40.366Z,3.78
2023-09-08T20:10:10.436Z,3.70
2023-09-08T20:12:39.513Z,3.20
2023-09-08T20:15:07.154Z,3.78
2023-09-08T20:17:34.320Z,3.05
2023-09-08T20:20:01.423Z,3.53
2023-09-08T20:22:28.685Z,2.70
2023-09-08T20:24:55.753Z,3.10
2023-09-08T20:27:22.704Z,3.10
2023-09-08T20:29:53.723Z,2.95
2023-09-08T20:32:20.795Z,3.30
2023-09-08T20:34:47.710Z,2.95
2023-09-08T20:37:14.682Z,3.58
2023-09-08T20:39:41.728Z,2.78
2023-09-08T20:42:10.509Z,2.83
2023-09-08T20:44:37.478Z,2.22
2023-09-08T20:47:05.105Z,2.90
2023-09-08T20:49:32.055Z,2.30
2023-09-08T20:51:59.176Z,2.50
2023-09-08T20:54:26.256Z,2.60
2023-09-08T20:56:54.633Z,2.95
2023-09-08T20:59:24.488Z,2.40
2023-09-08T21:01:53.261Z,2.75
2023-09-08T21:04:20.815Z,2.53
2023-09-08T21:06:47.745Z,2.42
2023-09-08T21:09:15.003Z,2.40
2023-09-08T21:11:42.152Z,3.08
2023-09-08T21:14:10.051Z,2.58
2023-09-08T21:16:37.050Z,2.88
2023-09-08T21:19:04.299Z,2.92
2023-09-08T21:21:31.269Z,3.95
2023-09-08T21:23:58.208Z,3.33
2023-09-08T21:26:25.212Z,3.13
2023-09-08T21:28:52.165Z,3.22
2023-09-08T21:31:19.205Z,2.50
2023-09-08T21:33:47.372Z,2.72
2023-09-08T21:36:17.160Z,4.45
2023-09-08T21:38:44.235Z,2.97
2023-09-08T21:41:11.747Z,3.08
2023-09-08T21:43:39.720Z,2.58
2023-09-08T21:46:08.634Z,2.88
2023-09-08T21:48:37.158Z,3.13
2023-09-08T21:51:04.719Z,2.80
2023-09-08T21:53:32.026Z,2.55
2023-09-08T21:55:58.999Z,3.88
2023-09-08T21:58:27.635Z,2.33
2023-09-08T22:00:57.975Z,3.20
2023-09-08T22:03:25.186Z,2.78
2023-09-08T22:05:52.348Z,2.53
2023-09-08T22:08:20.306Z,3.22
2023-09-08T22:10:47.183Z,2.30
2023-09-08T22:13:15.342Z,2.50
2023-09-08T22:15:42.402Z,2.17
2023-09-08T22:18:09.499Z,2.85
2023-09-08T22:20:36.632Z,2.22
2023-09-08T22:23:03.829Z,2.22
2023-09-08T22:25:33.477Z,2.63
2023-09-08T22:28:03.792Z,2.75
2023-09-08T22:30:30.702Z,3.00
2023-09-08T22:32:57.778Z,2.65
2023-09-08T22:35:24.920Z,2.30
2023-09-08T22:37:52.931Z,2.35
2023-09-08T22:40:20.130Z,2.58
2023-09-08T22:42:47.127Z,2.38
2023-09-08T22:45:14.275Z,2.60
2023-09-08T22:47:41.345Z,2.30
2023-09-08T22:50:11.044Z,2.17
2023-09-08T22:52:41.319Z,2.33
2023-09-08T22:55:23.372Z,1.60
2023-09-08T22:57:52.622Z,2.40
2023-09-08T23:00:19.977Z,2.60
2023-09-08T23:02:49.975Z,3.22
2023-09-08T23:05:17.726Z,2.78
2023-09-08T23:07:45.556Z,2.50
2023-09-08T23:10:12.876Z,2.17
2023-09-08T23:12:40.082Z,2.60
2023-09-08T23:15:08.681Z,2.25
2023-09-08T23:17:35.808Z,1.90
2023-09-08T23:20:16.371Z,1.95
2023-09-08T23:22:44.751Z,2.13
2023-09-08T23:25:11.909Z,2.33
2023-09-08T23:27:38.952Z,2.95
2023-09-08T23:30:07.424Z,3.83
2023-09-08T23:32:34.490Z,2.38
2023-09-08T23:35:02.006Z,2.40
2023-09-08T23:37:28.982Z,2.42
2023-09-08T23:39:55.920Z,2.28
2023-09-08T23:42:23.078Z,2.67
2023-09-08T23:44:50.069Z,2.40
2023-09-08T23:47:17.135Z,2.22
2023-09-08T23:49:44.490Z,2.90
2023-09-08T23:52:11.396Z,2.70
2023-09-08T23:54:38.337Z,2.22
2023-09-08T23:57:05.779Z,3.03
2023-09-08T23:59:32.945Z,2.83
